Time;durP1;ratioP1;P1;durP2;ratioP2;P2;SDS_P1;SDS_P2;PMS_P1;PMS_P2;Temp;Humidity;BMP_temperature;BMP_pressure;BME280_temperature;BME280_humidity;BME280_pressure;Samples;Min_cycle;Max_cycle;Signal;HPM_P1;HPM_P2
2022/03/09 05:02:19;;;;;;;13.90;7.60;;;-1.30;97.90;;;;;;5095760;23;20572;-72
2022/03/09 05:04:46;;;;;;;15.13;7.97;;;-1.30;97.80;;;;;;4956172;28;20915;-72
2022/03/09 05:07:13;;;;;;;14.73;7.77;;;-1.30;98.00;;;;;;4956126;28;20549;-71
2022/03/09 05:09:40;;;;;;;14.50;8.47;;;-1.30;98.20;;;;;;4956564;28;20499;-72
2022/03/09 05:12:07;;;;;;;12.60;7.97;;;-1.30;98.50;;;;;;4955984;28;20560;-71
2022/03/09 05:14:34;;;;;;;15.67;9.07;;;-1.30;98.70;;;;;;4956113;28;20454;-71
2022/03/09 05:17:01;;;;;;;16.00;8.23;;;-1.30;98.80;;;;;;4956107;28;20564;-71
2022/03/09 05:19:29;;;;;;;13.40;8.17;;;-1.30;99.10;;;;;;4955611;28;20475;-72
2022/03/09 05:21:56;;;;;;;14.30;7.90;;;-1.30;99.00;;;;;;4955893;28;20560;-72
2022/03/09 05:24:23;;;;;;;13.80;8.47;;;-1.30;98.70;;;;;;4956049;28;20453;-72
2022/03/09 05:26:50;;;;;;;16.70;8.93;;;-1.30;98.50;;;;;;4955518;28;20946;-72
2022/03/09 05:29:17;;;;;;;16.17;9.33;;;-1.30;98.80;;;;;;4955676;28;20504;-72
2022/03/09 05:31:45;;;;;;;17.50;8.70;;;-1.30;99.20;;;;;;4955536;28;20476;-72
2022/03/09 05:34:12;;;;;;;15.60;9.53;;;-1.30;99.10;;;;;;4955476;28;20457;-72
2022/03/09 05:36:41;;;;;;;17.20;9.97;;;-1.30;99.10;;;;;;4955633;28;20464;-72
2022/03/09 05:39:08;;;;;;;16.97;10.27;;;-1.30;99.10;;;;;;4955647;28;20449;-72
2022/03/09 05:41:35;;;;;;;18.27;10.20;;;-1.30;99.00;;;;;;4955613;28;20495;-72
2022/03/09 05:44:02;;;;;;;16.90;10.67;;;-1.30;99.10;;;;;;4955349;28;20496;-72
2022/03/09 05:46:30;;;;;;;17.67;9.73;;;-1.30;99.20;;;;;;4955273;28;20449;-72
2022/03/09 05:48:57;;;;;;;20.50;10.67;;;-1.30;99.30;;;;;;4954245;28;20489;-72
2022/03/09 05:51:23;;;;;;;16.83;10.07;;;-1.30;99.80;;;;;;4955031;28;20477;-72
2022/03/09 05:53:52;;;;;;;17.40;10.40;;;-1.30;99.90;;;;;;4955397;28;20532;-72
2022/03/09 05:56:19;;;;;;;19.53;10.43;;;-1.30;99.90;;;;;;4955231;28;20445;-72
2022/03/09 05:58:45;;;;;;;18.80;11.00;;;-1.30;99.90;;;;;;4955184;28;20460;-72
2022/03/09 06:01:12;;;;;;;17.00;9.87;;;-1.30;99.90;;;;;;4955235;28;20521;-72
2022/03/09 06:03:39;;;;;;;16.63;9.60;;;-1.30;99.90;;;;;;4955093;28;20472;-72
2022/03/09 06:06:06;;;;;;;15.87;9.60;;;-1.30;99.90;;;;;;4954776;28;20467;-64
2022/03/09 06:08:33;;;;;;;16.70;10.40;;;-1.30;99.90;;;;;;4954311;28;20975;-64
2022/03/09 06:11:01;;;;;;;15.60;9.00;;;-1.40;99.90;;;;;;4954848;28;20829;-73
2022/03/09 06:13:28;;;;;;;15.03;9.60;;;-1.40;99.90;;;;;;4955140;28;20465;-73
2022/03/09 06:15:55;;;;;;;17.23;9.57;;;-1.40;99.90;;;;;;4955325;28;20456;-73
2022/03/09 06:18:21;;;;;;;21.00;10.33;;;-1.40;99.90;;;;;;4954803;28;20453;-73
2022/03/09 06:20:50;;;;;;;18.73;10.00;;;-1.40;99.90;;;;;;4954865;28;20481;-73
2022/03/09 06:23:17;;;;;;;19.10;10.70;;;-1.40;99.90;;;;;;4954843;28;20844;-73
2022/03/09 06:25:44;;;;;;;17.60;10.73;;;-1.40;99.90;;;;;;4954400;28;20446;-72
2022/03/09 06:28:12;;;;;;;22.13;11.43;;;-1.30;99.90;;;;;;4954444;28;20449;-72
2022/03/09 06:30:39;;;;;;;19.73;12.40;;;-1.40;99.90;;;;;;4954509;28;20493;-77
2022/03/09 06:33:06;;;;;;;16.90;10.70;;;-1.30;99.90;;;;;;4954567;28;20462;-73
2022/03/09 06:35:33;;;;;;;16.87;10.23;;;-1.30;99.90;;;;;;4954659;28;20541;-73
2022/03/09 06:38:00;;;;;;;17.93;10.07;;;-1.30;99.90;;;;;;4954444;28;20453;-73
2022/03/09 06:40:27;;;;;;;20.00;12.80;;;-1.30;99.90;;;;;;4954234;28;20471;-73
2022/03/09 06:42:54;;;;;;;20.30;10.53;;;-1.30;99.90;;;;;;4954815;28;20481;-73
2022/03/09 06:45:22;;;;;;;24.50;11.23;;;-1.30;99.90;;;;;;4954604;28;20468;-73
2022/03/09 06:47:49;;;;;;;20.13;11.10;;;-1.30;99.90;;;;;;4953988;28;20540;-73
2022/03/09 06:50:16;;;;;;;22.33;10.57;;;-1.20;99.90;;;;;;4954235;28;20504;-73
2022/03/09 06:52:42;;;;;;;17.27;10.27;;;-1.20;99.90;;;;;;4954682;28;20500;-73
2022/03/09 06:55:12;;;;;;;19.47;12.00;;;-1.20;99.90;;;;;;4954472;28;20457;-73
2022/03/09 06:57:39;;;;;;;18.00;10.27;;;-1.10;99.90;;;;;;4954284;28;20493;-73
2022/03/09 07:00:11;;;;;;;22.23;12.60;;;-1.10;99.90;;;;;;4953995;28;20449;-71
2022/03/09 07:02:39;;;;;;;17.53;11.33;;;-1.10;99.90;;;;;;4954171;28;20462;-72
2022/03/09 07:05:07;;;;;;;26.13;12.33;;;-1.10;99.90;;;;;;4954066;28;20549;-75
2022/03/09 07:07:34;;;;;;;23.83;11.33;;;-1.00;99.90;;;;;;4953611;28;20446;-73
2022/03/09 07:10:01;;;;;;;20.07;11.67;;;-1.00;99.90;;;;;;4954299;28;21021;-75
2022/03/09 07:12:28;;;;;;;14.70;9.40;;;-1.00;99.90;;;;;;4954302;28;20477;-74
2022/03/09 07:14:54;;;;;;;19.07;9.13;;;-0.90;99.90;;;;;;4954427;28;20472;-74
2022/03/09 07:17:21;;;;;;;19.13;9.67;;;-0.90;99.90;;;;;;4953976;28;20799;-75
2022/03/09 07:19:51;;;;;;;15.00;10.00;;;-0.90;99.90;;;;;;4954093;28;20460;-74
2022/03/09 07:22:17;;;;;;;16.40;10.00;;;-0.80;99.90;;;;;;4953132;28;20473;-75
2022/03/09 07:24:44;;;;;;;17.10;9.80;;;-0.80;99.90;;;;;;4953550;28;20821;-74
2022/03/09 07:27:11;;;;;;;37.83;11.43;;;-0.70;99.90;;;;;;4953329;28;20492;-74
2022/03/09 07:29:38;;;;;;;20.00;9.87;;;-0.60;99.90;;;;;;4953959;28;20593;-74
2022/03/09 07:32:06;;;;;;;26.63;11.93;;;-0.50;99.90;;;;;;4953892;28;20473;-74
2022/03/09 07:34:33;;;;;;;20.33;11.97;;;-0.50;99.90;;;;;;4953627;28;20480;-74
2022/03/09 07:37:01;;;;;;;22.13;11.77;;;-0.50;99.90;;;;;;4953836;28;20457;-74
2022/03/09 07:39:30;;;;;;;21.33;10.80;;;-0.40;99.90;;;;;;4953945;28;20532;-74
2022/03/09 07:41:57;;;;;;;24.33;11.00;;;-0.30;99.90;;;;;;4953773;28;20836;-74
2022/03/09 07:44:26;;;;;;;17.90;11.03;;;-0.20;99.90;;;;;;4953935;28;20453;-75
2022/03/09 07:46:53;;;;;;;22.40;11.73;;;-0.20;99.90;;;;;;4953582;28;20462;-74
2022/03/09 07:49:20;;;;;;;19.50;10.90;;;-0.10;99.90;;;;;;4953143;28;20453;-74
2022/03/09 07:51:48;;;;;;;26.73;9.47;;;0.00;99.90;;;;;;4953556;28;20545;-76
2022/03/09 07:54:17;;;;;;;18.50;10.53;;;0.10;99.90;;;;;;4953506;28;20457;-74
2022/03/09 07:56:44;;;;;;;20.87;11.80;;;0.20;99.90;;;;;;4953102;28;20462;-74
2022/03/09 07:59:11;;;;;;;17.87;10.87;;;0.30;99.90;;;;;;4953546;28;20456;-74
2022/03/09 08:01:39;;;;;;;19.67;10.20;;;0.50;99.90;;;;;;4953083;28;20478;-74
2022/03/09 08:04:07;;;;;;;14.53;10.30;;;0.60;99.90;;;;;;4953734;28;20516;-74
2022/03/09 08:06:34;;;;;;;18.00;10.17;;;0.70;99.90;;;;;;4953486;28;20548;-74
2022/03/09 08:09:00;;;;;;;20.83;11.40;;;0.90;99.90;;;;;;4953583;28;20457;-74
2022/03/09 08:11:29;;;;;;;19.37;11.07;;;1.00;99.90;;;;;;4953209;28;21030;-74
2022/03/09 08:13:56;;;;;;;19.17;9.57;;;1.10;99.90;;;;;;4957585;28;20492;-74
2022/03/09 08:16:22;;;;;;;15.30;10.37;;;1.30;99.90;;;;;;4958105;28;20468;-74
2022/03/09 08:18:49;;;;;;;14.10;9.10;;;1.50;99.90;;;;;;4957261;28;20456;-74
2022/03/09 08:21:16;;;;;;;19.37;10.50;;;1.70;99.90;;;;;;4957168;28;20466;-74
2022/03/09 08:23:45;;;;;;;15.20;9.70;;;1.80;99.90;;;;;;4957094;28;20453;-75
2022/03/09 08:26:12;;;;;;;14.77;8.93;;;1.90;99.90;;;;;;4956787;28;20480;-75
2022/03/09 08:28:41;;;;;;;15.33;9.30;;;2.20;99.90;;;;;;4956761;28;20465;-75
2022/03/09 08:31:08;;;;;;;17.97;9.30;;;2.30;99.90;;;;;;4956665;28;21001;-75
2022/03/09 08:33:35;;;;;;;13.97;8.20;;;2.40;99.90;;;;;;4957015;28;20561;-75
2022/03/09 08:36:01;;;;;;;13.30;8.53;;;2.60;99.60;;;;;;4956800;28;20489;-75
2022/03/09 08:38:28;;;;;;;12.27;8.60;;;2.80;99.50;;;;;;4956538;28;20536;-75
2022/03/09 08:40:55;;;;;;;13.47;8.17;;;3.00;99.50;;;;;;4956465;28;20472;-75
2022/03/09 08:43:22;;;;;;;20.03;9.70;;;3.10;98.50;;;;;;4956238;28;20468;-75
2022/03/09 08:45:51;;;;;;;11.53;8.07;;;3.30;97.50;;;;;;4956405;28;20809;-75
2022/03/09 08:48:19;;;;;;;12.13;7.90;;;3.40;97.60;;;;;;4956507;28;20490;-75
2022/03/09 08:50:45;;;;;;;12.63;7.40;;;3.70;98.90;;;;;;4956492;28;20493;-75
2022/03/09 08:53:12;;;;;;;12.93;8.47;;;4.00;96.90;;;;;;4956338;28;20460;-75
2022/03/09 08:55:39;;;;;;;12.40;8.60;;;4.30;96.60;;;;;;4956644;28;20457;-74
2022/03/09 08:58:06;;;;;;;10.47;7.97;;;4.50;95.50;;;;;;4956219;28;20545;-74
2022/03/09 09:00:33;;;;;;;12.47;8.60;;;4.50;94.80;;;;;;4956363;28;20483;-74
2022/03/09 09:03:01;;;;;;;13.37;9.13;;;4.50;94.30;;;;;;4956295;28;20948;-75
2022/03/09 09:05:28;;;;;;;14.57;8.27;;;4.70;94.40;;;;;;4956503;28;20453;-75
2022/03/09 09:07:55;;;;;;;14.10;9.57;;;4.80;94.10;;;;;;4954346;28;20280;-75
2022/03/09 09:10:22;;;;;;;11.70;7.70;;;4.90;94.30;;;;;;4954896;28;20584;-75
2022/03/09 09:12:50;;;;;;;14.70;9.27;;;5.20;95.90;;;;;;4956075;28;20489;-75
2022/03/09 09:15:17;;;;;;;13.83;8.23;;;5.40;94.30;;;;;;4956107;28;20457;-75
2022/03/09 09:17:44;;;;;;;12.50;8.47;;;5.70;94.60;;;;;;4955690;28;21005;-75
2022/03/09 09:20:13;;;;;;;14.00;8.60;;;5.80;93.60;;;;;;4956059;28;20489;-76
2022/03/09 09:22:43;;;;;;;11.37;8.70;;;5.90;94.00;;;;;;4955292;28;20462;-76
2022/03/09 09:25:11;;;;;;;12.73;8.27;;;6.00;92.60;;;;;;4955976;28;20504;-75
2022/03/09 09:27:38;;;;;;;15.10;8.30;;;6.10;92.40;;;;;;4955432;28;20461;-75
2022/03/09 09:30:06;;;;;;;13.63;8.70;;;6.40;92.90;;;;;;4955796;28;20509;-75
2022/03/09 09:32:33;;;;;;;12.73;8.10;;;6.70;94.20;;;;;;4955398;28;20483;-76
2022/03/09 09:35:00;;;;;;;47.90;10.00;;;7.00;92.10;;;;;;4955571;28;20982;-76
2022/03/09 09:37:28;;;;;;;12.00;9.00;;;7.20;92.20;;;;;;4955308;28;20464;-76
2022/03/09 09:39:55;;;;;;;10.77;8.43;;;7.40;90.30;;;;;;4955509;28;20826;-76
2022/03/09 09:42:30;;;;;;;14.20;9.20;;;7.40;90.50;;;;;;4955387;28;21008;-76
2022/03/09 09:44:57;;;;;;;13.00;8.47;;;7.60;91.20;;;;;;4955641;28;20457;-76
2022/03/09 09:47:27;;;;;;;12.83;8.60;;;7.90;92.30;;;;;;4955196;28;20527;-76
2022/03/09 09:49:55;;;;;;;13.00;8.60;;;8.20;90.00;;;;;;4954907;29;20449;-76
2022/03/09 09:52:22;;;;;;;12.70;8.90;;;8.70;90.60;;;;;;4968369;28;20485;-76
2022/03/09 09:54:53;;;;;;;14.40;9.40;;;9.10;91.00;;;;;;4974717;28;20452;-76
2022/03/09 09:57:20;;;;;;;13.97;9.77;;;9.30;88.10;;;;;;4974289;28;20459;-76
2022/03/09 09:59:47;;;;;;;13.50;9.20;;;9.40;89.00;;;;;;4974658;28;20531;-76
2022/03/09 10:02:14;;;;;;;16.60;10.17;;;9.30;83.90;;;;;;4974272;28;20481;-75
2022/03/09 10:04:41;;;;;;;15.60;10.43;;;9.20;86.40;;;;;;4974418;28;20452;-75
2022/03/09 10:07:09;;;;;;;14.50;9.70;;;9.40;86.70;;;;;;4974717;28;20457;-75
2022/03/09 10:09:37;;;;;;;14.10;9.97;;;9.50;86.80;;;;;;4974776;28;20481;-75
2022/03/09 10:12:07;;;;;;;14.90;9.77;;;9.50;84.30;;;;;;4974312;28;20592;-75
2022/03/09 10:14:42;;;;;;;17.17;9.73;;;9.50;84.80;;;;;;4974260;28;20457;-75
2022/03/09 10:17:11;;;;;;;14.17;9.70;;;9.60;82.70;;;;;;4974058;28;20452;-75
2022/03/09 10:19:41;;;;;;;16.00;9.97;;;9.70;85.60;;;;;;4974371;28;20547;-75
2022/03/09 10:22:41;;;;;;;14.27;9.70;;;9.80;83.30;;;;;;4974072;28;20504;-75
2022/03/09 10:25:18;;;;;;;14.20;9.30;;;9.70;81.20;;;;;;4914413;29;20443;-75
2022/03/09 10:27:48;;;;;;;16.20;10.23;;;9.80;82.80;;;;;;4965512;28;20475;-75
2022/03/09 10:30:16;;;;;;;13.50;9.67;;;9.90;81.00;;;;;;4973717;28;21009;-74
2022/03/09 10:32:48;;;;;;;12.97;9.70;;;9.90;83.10;;;;;;4973802;28;20457;-74
2022/03/09 10:35:17;;;;;;;14.07;10.00;;;10.10;78.40;;;;;;4973180;28;20532;-75
2022/03/09 10:37:46;;;;;;;16.97;11.00;;;10.30;79.20;;;;;;4973856;28;20940;-75
2022/03/09 10:40:15;;;;;;;13.77;10.03;;;10.30;78.40;;;;;;4973676;28;20465;-74
2022/03/09 10:42:42;;;;;;;14.20;10.33;;;10.60;80.90;;;;;;4973664;28;20952;-75
2022/03/09 10:45:11;;;;;;;17.30;10.23;;;11.40;79.30;;;;;;4974077;28;20461;-74
2022/03/09 10:47:41;;;;;;;13.50;9.90;;;12.10;73.20;;;;;;4973497;28;20640;-74
2022/03/09 10:50:19;;;;;;;16.20;11.73;;;11.70;72.70;;;;;;4973565;28;20547;-74
2022/03/09 10:52:49;;;;;;;18.20;11.67;;;11.40;73.40;;;;;;4973645;28;21092;-74
2022/03/09 10:55:24;;;;;;;15.20;11.33;;;11.90;75.30;;;;;;4973743;28;20523;-74
2022/03/09 10:57:51;;;;;;;15.30;10.43;;;12.80;73.80;;;;;;4973423;28;20459;-75
2022/03/09 11:00:38;;;;;;;15.53;10.60;;;13.20;73.80;;;;;;4973199;28;20499;-75
2022/03/09 11:03:10;;;;;;;17.50;11.03;;;13.90;72.80;;;;;;4972073;28;21308;-75
2022/03/09 11:05:37;;;;;;;17.97;11.27;;;14.40;71.80;;;;;;4973543;28;20552;-75
2022/03/09 11:08:05;;;;;;;17.63;12.03;;;14.80;71.10;;;;;;4973081;28;20467;-75
2022/03/09 11:10:33;;;;;;;13.93;10.60;;;14.70;61.50;;;;;;4973064;28;20591;-75
2022/03/09 11:13:00;;;;;;;14.33;10.63;;;14.10;63.70;;;;;;4973314;28;20508;-76
2022/03/09 11:15:28;;;;;;;13.00;10.60;;;14.00;64.80;;;;;;4996143;23;20512;-76
2022/03/09 11:17:57;;;;;;;15.83;11.50;;;13.70;63.20;;;;;;4973469;28;20463;-77
2022/03/09 11:20:24;;;;;;;16.83;11.50;;;14.40;63.50;;;;;;4974280;28;20463;-77
2022/03/09 11:22:51;;;;;;;18.77;12.10;;;15.10;60.00;;;;;;4973974;28;20836;-77
2022/03/09 11:25:23;;;;;;;16.80;11.10;;;14.70;59.00;;;;;;4970860;28;20480;-77
2022/03/09 11:27:53;;;;;;;19.80;11.07;;;14.70;61.00;;;;;;4953266;28;20462;-77
2022/03/09 11:30:25;;;;;;;14.93;10.90;;;15.10;62.30;;;;;;4953768;28;20441;-77
2022/03/09 11:32:54;;;;;;;16.67;11.80;;;15.00;61.40;;;;;;4953990;28;20869;-77
2022/03/09 11:35:39;;;;;;;18.70;12.40;;;15.60;61.80;;;;;;4953755;28;20481;-77
2022/03/09 11:38:40;;;;;;;17.03;11.00;;;16.20;60.30;;;;;;4953736;28;20457;-77
2022/03/09 11:41:17;;;;;;;18.73;12.50;;;16.00;58.40;;;;;;4954097;28;20481;-77
2022/03/09 11:43:45;;;;;;;20.57;12.47;;;16.40;57.90;;;;;;4953796;28;20487;-76
2022/03/09 11:46:12;;;;;;;17.93;12.67;;;16.40;56.70;;;;;;4954787;28;20653;-77
2022/03/09 11:48:50;;;;;;;16.60;11.17;;;16.20;58.90;;;;;;4958846;28;20446;-78
2022/03/09 11:51:19;;;;;;;19.37;13.13;;;16.60;58.90;;;;;;4958124;28;20540;-77
2022/03/09 11:53:52;;;;;;;17.50;12.40;;;16.40;56.60;;;;;;4957381;28;20445;-77
2022/03/09 11:56:33;;;;;;;16.37;11.40;;;16.50;56.20;;;;;;4956179;28;20477;-77
2022/03/09 11:59:26;;;;;;;17.53;12.43;;;16.70;57.60;;;;;;4957590;28;20464;-77
2022/03/09 12:02:15;;;;;;;18.73;11.60;;;17.40;57.20;;;;;;4958241;28;20438;-77
2022/03/09 12:04:53;;;;;;;21.17;12.00;;;17.10;57.20;;;;;;4958174;28;20470;-77
2022/03/09 12:07:56;;;;;;;20.30;12.50;;;17.70;56.10;;;;;;4958456;28;20541;-78
2022/03/09 12:10:44;;;;;;;20.40;12.80;;;18.20;56.50;;;;;;4959250;28;20469;-77
2022/03/09 12:13:20;;;;;;;18.37;12.90;;;18.60;54.10;;;;;;4959072;28;20780;-77
2022/03/09 12:16:14;;;;;;;18.37;12.37;;;18.30;55.00;;;;;;4955061;28;20997;-77
2022/03/09 12:19:09;;;;;;;19.73;12.40;;;18.60;54.70;;;;;;4956306;28;20453;-76
2022/03/09 12:22:01;;;;;;;20.20;13.33;;;18.80;53.70;;;;;;4951861;28;20528;-78
2022/03/09 12:24:33;;;;;;;16.20;12.90;;;18.70;53.60;;;;;;4950765;29;20516;-76
2022/03/09 12:27:01;;;;;;;19.17;12.80;;;18.60;53.00;;;;;;4957287;28;20993;-75
2022/03/09 12:29:39;;;;;;;20.20;13.63;;;18.70;53.70;;;;;;4956686;28;20832;-76
2022/03/09 12:32:08;;;;;;;17.43;12.83;;;19.10;52.30;;;;;;4953267;28;20493;-76
2022/03/09 12:34:36;;;;;;;19.13;12.77;;;19.30;52.90;;;;;;4955799;28;20477;-76
2022/03/09 12:37:05;;;;;;;18.83;13.60;;;19.10;52.50;;;;;;4956147;28;20484;-76
2022/03/09 12:39:34;;;;;;;18.80;12.73;;;19.40;53.60;;;;;;4955644;28;20444;-76
2022/03/09 12:42:03;;;;;;;15.73;11.40;;;19.80;53.60;;;;;;4955901;28;20488;-76
2022/03/09 12:44:32;;;;;;;19.10;12.90;;;19.80;51.20;;;;;;4955932;28;20836;-76
2022/03/09 12:47:03;;;;;;;19.00;13.00;;;20.00;52.20;;;;;;4955238;28;20577;-76
2022/03/09 12:49:33;;;;;;;17.20;12.53;;;19.90;50.70;;;;;;4955808;28;20638;-76
2022/03/09 12:52:03;;;;;;;15.03;11.90;;;20.00;50.50;;;;;;4955468;28;20583;-76
2022/03/09 12:54:42;;;;;;;19.47;12.47;;;20.00;50.60;;;;;;4955590;28;20453;-76
2022/03/09 12:57:16;;;;;;;19.60;13.03;;;20.00;51.20;;;;;;4955258;28;20477;-76
2022/03/09 13:00:01;;;;;;;19.53;12.60;;;20.00;50.00;;;;;;4954964;28;20442;-76
2022/03/09 13:02:39;;;;;;;18.43;12.60;;;20.20;50.50;;;;;;4955482;28;20556;-76
2022/03/09 13:05:07;;;;;;;23.37;13.70;;;20.20;49.70;;;;;;4955284;28;20544;-76
2022/03/09 13:07:35;;;;;;;18.90;12.60;;;20.00;49.30;;;;;;4955196;28;20457;-78
2022/03/09 13:10:05;;;;;;;17.07;12.20;;;19.90;50.10;;;;;;4954873;28;20458;-76
2022/03/09 13:12:34;;;;;;;18.07;12.77;;;19.80;49.50;;;;;;4954850;28;20489;-76
2022/03/09 13:15:02;;;;;;;16.90;12.67;;;20.10;48.20;;;;;;4954526;28;20911;-76
2022/03/09 13:17:29;;;;;;;19.40;12.20;;;20.00;47.90;;;;;;4954759;28;20485;-76
2022/03/09 13:19:57;;;;;;;19.90;11.90;;;19.80;47.90;;;;;;4955101;28;20823;-76
2022/03/09 13:22:24;;;;;;;19.97;12.47;;;19.90;48.70;;;;;;4955700;28;20454;-76
2022/03/09 13:25:00;;;;;;;20.33;12.70;;;19.80;46.70;;;;;;4955939;28;20552;-77
2022/03/09 13:27:28;;;;;;;21.20;12.80;;;19.60;47.10;;;;;;4955519;28;20449;-77
2022/03/09 13:29:56;;;;;;;17.73;12.83;;;19.40;47.00;;;;;;4955794;28;21152;-77
2022/03/09 13:32:32;;;;;;;21.23;13.27;;;19.00;47.60;;;;;;4955941;28;20493;-77
2022/03/09 13:34:59;;;;;;;18.63;12.80;;;18.80;47.90;;;;;;4955557;28;20453;-77
2022/03/09 13:37:34;;;;;;;17.00;12.30;;;18.80;48.30;;;;;;4955964;28;20979;-77
2022/03/09 13:40:02;;;;;;;15.80;11.07;;;18.50;46.50;;;;;;4956025;28;20468;-77
2022/03/09 13:42:34;;;;;;;18.57;12.00;;;18.60;46.40;;;;;;4955799;28;20552;-77
2022/03/09 13:45:05;;;;;;;19.13;11.80;;;18.90;46.90;;;;;;4955834;28;20541;-77
2022/03/09 13:47:47;;;;;;;21.60;12.57;;;19.10;46.00;;;;;;4954732;28;20818;-76
2022/03/09 13:50:21;;;;;;;18.20;11.60;;;19.30;46.80;;;;;;4955866;28;20434;-79
2022/03/09 13:52:49;;;;;;;18.00;11.83;;;19.60;46.40;;;;;;4955776;28;20856;-78
2022/03/09 13:55:25;;;;;;;19.50;13.53;;;19.60;46.30;;;;;;4956437;28;20970;-80
2022/03/09 13:58:04;;;;;;;20.07;13.27;;;19.50;45.70;;;;;;4956428;28;20969;-79
2022/03/09 14:00:36;;;;;;;18.47;13.10;;;19.20;45.80;;;;;;4957961;28;20489;-80
2022/03/09 14:03:12;;;;;;;20.37;13.30;;;19.10;45.90;;;;;;4958195;28;20457;-79
2022/03/09 14:05:41;;;;;;;19.93;13.40;;;18.90;47.60;;;;;;4960002;28;20513;-80
2022/03/09 14:08:11;;;;;;;19.17;12.67;;;18.90;46.60;;;;;;4958808;28;20867;-79
2022/03/09 14:10:39;;;;;;;20.83;12.97;;;19.00;47.40;;;;;;4958852;28;20946;-80
2022/03/09 14:13:15;;;;;;;18.47;13.00;;;19.00;46.30;;;;;;4961260;28;20516;-81
2022/03/09 14:15:43;;;;;;;21.87;13.13;;;18.70;46.90;;;;;;4959268;28;20870;-80
2022/03/09 14:18:10;;;;;;;20.63;13.20;;;18.70;49.00;;;;;;4960428;28;20449;-79
2022/03/09 14:20:37;;;;;;;19.03;12.40;;;18.70;49.60;;;;;;4956141;28;20520;-76
2022/03/09 14:23:07;;;;;;;17.30;12.50;;;18.70;49.70;;;;;;4956038;28;20551;-79
2022/03/09 14:25:35;;;;;;;19.53;12.70;;;18.80;50.20;;;;;;4955291;28;20580;-77
2022/03/09 14:28:02;;;;;;;22.63;13.00;;;18.90;49.50;;;;;;4954759;28;20468;-77
2022/03/09 14:30:28;;;;;;;19.57;12.97;;;18.90;49.70;;;;;;4954892;28;20457;-77
2022/03/09 14:32:57;;;;;;;23.03;12.93;;;18.90;47.40;;;;;;4955206;28;21014;-77
2022/03/09 14:35:24;;;;;;;18.23;12.23;;;18.90;48.40;;;;;;4956403;28;20516;-79
2022/03/09 14:37:53;;;;;;;22.07;13.37;;;18.90;48.80;;;;;;4955376;28;20468;-77
2022/03/09 14:40:21;;;;;;;24.93;14.40;;;18.90;48.80;;;;;;4955049;28;20457;-77
2022/03/09 14:42:48;;;;;;;21.07;14.00;;;18.90;47.90;;;;;;4955587;28;20976;-77
2022/03/09 14:45:16;;;;;;;20.77;13.20;;;18.90;47.50;;;;;;4954941;28;20473;-77
2022/03/09 14:47:44;;;;;;;20.80;12.70;;;19.10;48.00;;;;;;4954480;28;20456;-75
2022/03/09 14:50:13;;;;;;;19.20;13.93;;;19.10;47.60;;;;;;4954525;28;20540;-75
2022/03/09 14:52:40;;;;;;;19.13;13.37;;;19.20;47.90;;;;;;4954286;28;20493;-76
2022/03/09 14:55:08;;;;;;;20.80;13.80;;;19.30;46.60;;;;;;4954228;28;20461;-75
2022/03/09 14:57:36;;;;;;;19.57;13.47;;;19.30;46.40;;;;;;4953973;28;20546;-76
2022/03/09 15:00:04;;;;;;;23.27;14.73;;;19.40;47.80;;;;;;4954284;28;20480;-77
2022/03/09 15:02:31;;;;;;;20.17;13.50;;;19.50;47.10;;;;;;4953904;28;20545;-77
2022/03/09 15:04:58;;;;;;;20.03;13.37;;;19.60;46.50;;;;;;4954354;28;20449;-77
2022/03/09 15:07:27;;;;;;;20.23;12.77;;;19.40;46.00;;;;;;4954100;28;20454;-77
2022/03/09 15:09:54;;;;;;;20.63;12.40;;;19.10;45.40;;;;;;4954083;28;20457;-77
2022/03/09 15:12:20;;;;;;;24.70;13.90;;;19.10;46.40;;;;;;4954205;28;20520;-77
2022/03/09 15:14:47;;;;;;;23.23;13.03;;;19.00;48.40;;;;;;4953914;28;21030;-76
2022/03/09 15:17:14;;;;;;;16.63;12.13;;;19.10;47.30;;;;;;4953248;28;21007;-76
2022/03/09 15:19:41;;;;;;;19.57;13.20;;;19.10;47.10;;;;;;4953099;28;20480;-76
2022/03/09 15:22:08;;;;;;;19.60;12.83;;;19.10;46.60;;;;;;4955060;28;20505;-77
2022/03/09 15:24:36;;;;;;;18.93;13.37;;;18.90;46.40;;;;;;4953720;28;20977;-76
2022/03/09 15:27:04;;;;;;;20.30;13.10;;;18.80;46.40;;;;;;4953818;28;20557;-76
2022/03/09 15:29:31;;;;;;;19.80;13.30;;;18.80;48.40;;;;;;4954062;28;20453;-76
2022/03/09 15:31:58;;;;;;;20.37;12.47;;;18.90;48.50;;;;;;4954021;28;20493;-76
2022/03/09 15:34:27;;;;;;;19.33;13.10;;;18.90;47.80;;;;;;4953809;28;20467;-75
2022/03/09 15:36:55;;;;;;;19.23;13.10;;;18.80;47.70;;;;;;4953462;28;20485;-75
2022/03/09 15:39:22;;;;;;;20.10;13.13;;;18.90;49.50;;;;;;4953793;28;20457;-75
2022/03/09 15:41:52;;;;;;;19.27;13.10;;;19.20;48.50;;;;;;4953926;28;20469;-76
2022/03/09 15:44:19;;;;;;;27.73;14.07;;;19.30;46.90;;;;;;4953800;28;20441;-76
2022/03/09 15:46:46;;;;;;;22.40;13.63;;;19.50;48.70;;;;;;4953612;28;20567;-77
2022/03/09 15:49:13;;;;;;;20.70;13.47;;;19.60;47.50;;;;;;4953726;28;20457;-76
2022/03/09 15:51:40;;;;;;;23.03;13.83;;;19.70;48.00;;;;;;4953654;28;20457;-76
2022/03/09 15:54:07;;;;;;;18.30;13.10;;;19.80;47.20;;;;;;4953272;28;20457;-76
2022/03/09 15:56:34;;;;;;;17.40;12.70;;;19.90;46.20;;;;;;4952127;28;20473;-76
2022/03/09 15:59:02;;;;;;;22.60;13.20;;;19.70;45.80;;;;;;4952702;28;20502;-76
2022/03/09 16:01:29;;;;;;;21.90;14.40;;;19.80;46.80;;;;;;4952661;28;20958;-77
2022/03/09 16:03:56;;;;;;;18.10;13.50;;;19.60;46.70;;;;;;4952584;28;20456;-76
2022/03/09 16:06:23;;;;;;;19.13;12.67;;;19.80;46.70;;;;;;4952401;28;20473;-76
2022/03/09 16:08:50;;;;;;;20.50;13.60;;;20.00;47.80;;;;;;4952363;28;20507;-76
2022/03/09 16:11:18;;;;;;;24.70;13.93;;;20.30;47.00;;;;;;4951646;28;20457;-76
2022/03/09 16:13:45;;;;;;;20.37;13.90;;;20.50;46.80;;;;;;4952563;28;20544;-76
2022/03/09 16:16:13;;;;;;;18.50;12.97;;;20.60;46.50;;;;;;4952244;28;20485;-76
2022/03/09 16:18:46;;;;;;;22.30;13.40;;;20.70;46.60;;;;;;4952332;28;20449;-76
2022/03/09 16:21:13;;;;;;;20.43;13.40;;;20.90;46.30;;;;;;4952369;28;20865;-76
2022/03/09 16:23:40;;;;;;;20.77;14.53;;;20.80;45.30;;;;;;4952086;28;20461;-76
2022/03/09 16:26:07;;;;;;;18.80;13.80;;;20.60;45.60;;;;;;4952375;28;20473;-76
2022/03/09 16:28:34;;;;;;;29.77;13.30;;;20.30;47.50;;;;;;4952213;28;20446;-76
2022/03/09 16:31:01;;;;;;;23.60;14.60;;;19.90;47.40;;;;;;4952841;28;20484;-75
2022/03/09 16:33:29;;;;;;;20.47;13.33;;;19.60;47.60;;;;;;4954360;28;20523;-76
2022/03/09 16:35:56;;;;;;;25.40;14.83;;;19.10;46.90;;;;;;4957629;28;21003;-76
2022/03/09 16:38:23;;;;;;;22.00;14.57;;;18.70;48.20;;;;;;4955995;28;20477;-76
2022/03/09 16:40:50;;;;;;;23.93;14.30;;;18.40;48.90;;;;;;4956780;28;20536;-76
2022/03/09 16:43:17;;;;;;;21.20;13.60;;;18.10;49.00;;;;;;4956702;28;20544;-76
2022/03/09 16:45:44;;;;;;;22.97;13.73;;;17.80;49.80;;;;;;4956713;28;20469;-77
2022/03/09 16:48:11;;;;;;;18.87;13.20;;;17.50;49.30;;;;;;4955862;28;20836;-76
2022/03/09 16:50:39;;;;;;;21.67;13.53;;;17.20;49.80;;;;;;4956416;28;20472;-76
2022/03/09 16:53:06;;;;;;;20.67;13.03;;;17.00;50.20;;;;;;4955865;28;21107;-77
2022/03/09 16:55:33;;;;;;;18.33;12.80;;;16.80;50.40;;;;;;4955259;28;21035;-76
2022/03/09 16:58:00;;;;;;;22.40;13.50;;;16.40;50.50;;;;;;4955444;28;20489;-76
2022/03/09 17:00:27;;;;;;;20.53;12.43;;;16.30;51.40;;;;;;4955374;28;20493;-75
2022/03/09 17:02:54;;;;;;;19.70;12.00;;;16.00;51.20;;;;;;4955998;28;20821;-76
2022/03/09 17:05:21;;;;;;;30.70;13.60;;;15.90;51.50;;;;;;4955391;28;20472;-77
2022/03/09 17:07:51;;;;;;;22.03;12.53;;;15.60;51.90;;;;;;4955609;28;20504;-77
2022/03/09 17:10:19;;;;;;;24.53;16.27;;;15.50;52.30;;;;;;4954286;28;20453;-77
2022/03/09 17:12:46;;;;;;;24.07;16.10;;;15.30;52.50;;;;;;4954462;28;20493;-77
2022/03/09 17:17:49;;;;;;;18.93;12.57;;;15.00;53.30;;;;;;4934255;29;20564;-75
2022/03/09 17:20:16;;;;;;;21.50;12.23;;;14.80;53.20;;;;;;4936041;29;20470;-75
2022/03/09 17:22:43;;;;;;;18.00;11.60;;;14.70;54.30;;;;;;4936137;29;20457;-76
2022/03/09 17:25:12;;;;;;;19.20;11.87;;;14.60;53.80;;;;;;4935742;29;20545;-75
2022/03/09 17:27:39;;;;;;;26.60;13.73;;;14.40;53.90;;;;;;4935601;29;20994;-76
2022/03/09 17:30:07;;;;;;;20.07;12.50;;;14.30;54.40;;;;;;4935865;29;20482;-75
2022/03/09 17:32:38;;;;;;;22.53;12.00;;;14.20;54.00;;;;;;4935251;29;20502;-75
2022/03/09 17:35:06;;;;;;;20.70;12.00;;;14.00;54.30;;;;;;4936049;29;20457;-75
2022/03/09 17:37:34;;;;;;;22.03;12.70;;;13.90;54.70;;;;;;4935780;29;20476;-75
2022/03/09 17:40:04;;;;;;;18.97;12.80;;;13.80;55.20;;;;;;4936016;29;20490;-76
2022/03/09 17:42:32;;;;;;;25.80;13.70;;;13.60;54.50;;;;;;4935571;29;20457;-75
2022/03/09 17:44:59;;;;;;;24.47;12.30;;;13.50;55.60;;;;;;4935143;29;20541;-75